Time;durP1;ratioP1;P1;durP2;ratioP2;P2;SDS_P1;SDS_P2;PMS_P1;PMS_P2;Temp;Humidity;BMP_temperature;BMP_pressure;BME280_temperature;BME280_humidity;BME280_pressure;Samples;Min_cycle;Max_cycle;Signal;HPM_P1;HPM_P2
2021/09/25 00:02:07;;;;;;;;;19.00;15.00;;;;;18.88;100.00;101438.75;5016274;28;46523;-64
2021/09/25 00:07:55;;;;;;;;;15.25;14.25;;;;;18.84;100.00;101436.28;5019711;28;45568;-65
2021/09/25 00:10:21;;;;;;;;;16.25;16.25;;;;;18.72;100.00;101416.44;5019502;28;45271;-64
2021/09/25 00:12:47;;;;;;;;;20.25;18.50;;;;;18.74;100.00;101429.59;5019220;28;45489;-65
2021/09/25 00:15:13;;;;;;;;;17.75;16.50;;;;;18.69;100.00;101416.53;5019377;28;45361;-65
2021/09/25 00:17:38;;;;;;;;;18.50;16.50;;;;;18.74;100.00;101427.81;5019510;28;45367;-66
2021/09/25 00:20:05;;;;;;;;;20.50;17.75;;;;;18.67;100.00;101416.59;5019534;28;45372;-65
2021/09/25 00:22:30;;;;;;;;;15.75;14.75;;;;;18.72;100.00;101431.44;5019149;28;45493;-66
2021/09/25 00:24:55;;;;;;;;;18.25;17.50;;;;;18.65;100.00;101415.78;5019398;28;45402;-66
2021/09/25 00:27:21;;;;;;;;;19.50;14.50;;;;;18.60;100.00;101417.72;5019339;28;45333;-65
2021/09/25 00:29:46;;;;;;;;;18.75;15.75;;;;;18.63;100.00;101430.00;5019393;28;45472;-65
2021/09/25 00:32:11;;;;;;;;;17.00;16.00;;;;;18.44;100.00;101394.53;5018864;28;47102;-65
2021/09/25 00:37:58;;;;;;;;;16.50;15.25;;;;;18.54;100.00;101430.28;5019130;28;45308;-65
2021/09/25 00:40:24;;;;;;;;;15.50;14.50;;;;;18.49;100.00;101434.88;5019528;28;45372;-65
2021/09/25 00:42:49;;;;;;;;;18.50;18.50;;;;;18.42;100.00;101422.81;5018781;28;46037;-64
2021/09/25 00:45:18;;;;;;;;;25.50;19.00;;;;;18.45;100.00;101425.34;5018878;28;45326;-65
2021/09/25 00:47:44;;;;;;;;;16.25;16.00;;;;;18.46;100.00;101430.56;5018897;28;45360;-65
2021/09/25 00:53:31;;;;;;;;;17.75;17.00;;;;;18.39;100.00;101429.06;5018634;28;45703;-64
2021/09/25 00:55:57;;;;;;;;;19.50;17.50;;;;;18.45;100.00;101438.56;5018742;28;45294;-65
2021/09/25 00:58:22;;;;;;;;;18.00;16.75;;;;;18.40;100.00;101440.50;5001444;28;45392;-64
2021/09/25 01:00:48;;;;;;;;;21.75;20.25;;;;;18.41;100.00;101439.59;5018782;28;45286;-65
2021/09/25 01:03:13;;;;;;;;;20.25;19.25;;;;;18.38;100.00;101437.94;5018569;28;46163;-66
2021/09/25 01:05:42;;;;;;;;;20.25;17.00;;;;;18.37;100.00;101430.91;5018675;28;45383;-65
2021/09/25 01:08:07;;;;;;;;;18.75;17.00;;;;;18.34;100.00;101426.59;5018665;28;45437;-65
2021/09/25 01:10:32;;;;;;;;;19.75;19.25;;;;;18.29;100.00;101420.59;5018532;28;45415;-65
2021/09/25 01:12:59;;;;;;;;;21.75;20.50;;;;;18.20;100.00;101413.00;5018259;28;46591;-65
2021/09/25 01:15:24;;;;;;;;;18.50;18.00;;;;;18.31;100.00;101436.41;5017567;28;45802;-65
2021/09/25 01:17:49;;;;;;;;;19.25;18.00;;;;;18.20;100.00;101422.72;5018510;28;45378;-65
2021/09/25 01:23:37;;;;;;;;;17.25;16.00;;;;;18.25;100.00;101431.31;5018039;28;45337;-65
2021/09/25 01:26:04;;;;;;;;;17.50;15.75;;;;;18.16;100.00;101419.31;5018220;28;45347;-65
2021/09/25 01:28:32;;;;;;;;;19.50;18.50;;;;;18.20;100.00;101428.00;5018437;28;45392;-65
2021/09/25 01:30:59;;;;;;;;;19.25;17.50;;;;;18.15;100.00;101424.66;5018168;28;45370;-64
2021/09/25 01:33:30;;;;;;;;;20.75;19.25;;;;;18.14;100.00;101425.56;5018114;28;46327;-64
2021/09/25 01:35:55;;;;;;;;;20.25;19.75;;;;;18.10;100.00;101418.63;5018059;28;45366;-64
2021/09/25 01:38:21;;;;;;;;;23.75;20.00;;;;;18.10;100.00;101422.13;5018232;28;45270;-64
2021/09/25 01:40:47;;;;;;;;;18.75;17.00;;;;;18.06;100.00;101413.47;5018679;28;45328;-65
2021/09/25 01:43:12;;;;;;;;;19.00;18.00;;;;;17.89;100.00;101388.56;5017811;28;45453;-65
2021/09/25 01:45:38;;;;;;;;;19.75;17.75;;;;;18.02;100.00;101418.91;5018083;28;45353;-65
2021/09/25 01:48:03;;;;;;;;;20.00;16.50;;;;;18.02;100.00;101411.84;5017724;28;45420;-65
2021/09/25 01:53:50;;;;;;;;;19.00;18.00;;;;;17.96;100.00;101409.41;5017660;28;45669;-65
2021/09/25 01:56:16;;;;;;;;;20.25;17.00;;;;;17.94;100.00;101405.09;5017742;28;45376;-65
2021/09/25 01:58:42;;;;;;;;;16.50;15.00;;;;;17.95;100.00;101398.91;5017881;28;45400;-64
2021/09/25 02:01:12;;;;;;;;;19.75;18.25;;;;;17.93;100.00;101403.38;5018334;28;45358;-67
2021/09/25 02:03:37;;;;;;;;;21.25;19.25;;;;;17.87;100.00;101393.00;5017819;28;46187;-65
2021/09/25 02:06:07;;;;;;;;;20.00;17.00;;;;;17.91;100.00;101402.56;5017639;28;45298;-64
2021/09/25 02:08:34;;;;;;;;;19.50;18.25;;;;;17.86;100.00;101407.13;5017822;28;45376;-64
2021/09/25 02:11:00;;;;;;;;;22.00;21.00;;;;;17.87;100.00;101395.66;5017882;28;45382;-64
2021/09/25 02:13:26;;;;;;;;;21.00;19.25;;;;;17.83;100.00;101386.97;5017380;28;46196;-65
2021/09/25 02:15:52;;;;;;;;;20.75;15.75;;;;;17.81;100.00;101387.94;5017862;28;45223;-64
2021/09/25 02:18:17;;;;;;;;;20.75;19.50;;;;;17.76;100.00;101374.88;5017397;28;45329;-65
2021/09/25 02:24:04;;;;;;;;;20.75;19.50;;;;;17.78;100.00;101382.75;5017329;28;45658;-65
2021/09/25 02:26:30;;;;;;;;;22.25;20.25;;;;;17.70;100.00;101378.59;4999843;28;45365;-65
2021/09/25 02:28:55;;;;;;;;;21.00;19.00;;;;;17.57;100.00;101355.25;5017829;28;45327;-65
2021/09/25 02:31:20;;;;;;;;;21.50;20.00;;;;;17.69;100.00;101383.94;5017611;28;45258;-65
2021/09/25 02:33:47;;;;;;;;;21.25;18.50;;;;;17.75;100.00;101384.59;5017415;28;46154;-65
2021/09/25 02:36:13;;;;;;;;;19.00;17.25;;;;;17.67;100.00;101373.44;5017065;28;45701;-65
2021/09/25 02:38:38;;;;;;;;;20.00;18.25;;;;;17.64;100.00;101370.84;5017438;28;45294;-66
2021/09/25 02:41:04;;;;;;;;;20.25;19.00;;;;;17.70;100.00;101388.31;5017762;28;45282;-64
2021/09/25 02:43:29;;;;;;;;;19.00;18.00;;;;;17.68;100.00;101387.50;5017182;28;46994;-64
2021/09/25 02:45:55;;;;;;;;;20.00;19.00;;;;;17.63;100.00;101376.16;5016886;28;45405;-64
2021/09/25 02:48:20;;;;;;;;;20.25;19.00;;;;;17.60;100.00;101371.84;5017187;28;45619;-65
2021/09/25 02:54:07;;;;;;;;;21.75;20.00;;;;;17.56;100.00;101370.22;5016649;28;45796;-65
2021/09/25 02:56:33;;;;;;;;;23.50;22.00;;;;;17.56;100.00;101366.72;5016826;28;45287;-64
2021/09/25 02:58:58;;;;;;;;;24.00;18.50;;;;;17.60;100.00;101384.19;5016933;28;45311;-65
2021/09/25 03:01:25;;;;;;;;;22.00;19.00;;;;;17.58;100.00;101372.81;5017386;28;45392;-64
2021/09/25 03:03:51;;;;;;;;;17.75;16.50;;;;;17.55;100.00;101373.78;5016998;28;46346;-65
2021/09/25 03:06:16;;;;;;;;;24.75;20.00;;;;;17.52;100.00;101370.41;5016781;28;45374;-65
2021/09/25 03:08:42;;;;;;;;;21.00;19.25;;;;;17.51;100.00;101369.53;5017035;28;45394;-65
2021/09/25 03:11:07;;;;;;;;;18.75;17.50;;;;;17.46;100.00;101360.91;5016859;28;45274;-65
2021/09/25 03:13:33;;;;;;;;;19.75;19.00;;;;;17.42;100.00;101356.63;5016689;28;46217;-65
2021/09/25 03:16:00;;;;;;;;;18.75;18.25;;;;;17.43;100.00;101363.66;5017016;28;45370;-65
2021/09/25 03:18:25;;;;;;;;;22.50;19.50;;;;;17.43;100.00;101363.66;5016733;28;45422;-65
2021/09/25 03:24:15;;;;;;;;;21.25;20.25;;;;;17.35;100.00;101357.75;5016367;28;45329;-66
2021/09/25 03:26:40;;;;;;;;;24.25;20.75;;;;;17.37;100.00;101372.59;5016489;28;45691;-67
2021/09/25 03:29:08;;;;;;;;;21.75;19.50;;;;;17.34;100.00;101367.44;5016532;28;45243;-65
2021/09/25 03:31:33;;;;;;;;;21.00;20.50;;;;;17.29;100.00;101350.88;5016739;28;45599;-66
2021/09/25 03:33:58;;;;;;;;;20.25;18.75;;;;;17.28;100.00;101351.81;5016373;28;46399;-65
2021/09/25 03:39:45;;;;;;;;;27.50;23.75;;;;;17.25;100.00;101364.25;5019964;28;45417;-66
2021/09/25 03:42:10;;;;;;;;;25.00;23.00;;;;;17.24;100.00;101370.44;5019936;28;45278;-66
2021/09/25 03:44:36;;;;;;;;;25.00;23.25;;;;;17.21;100.00;101368.75;5019942;28;45446;-65
2021/09/25 03:47:01;;;;;;;;;24.75;22.00;;;;;17.21;100.00;101371.41;5020098;28;45471;-64
2021/09/25 03:49:26;;;;;;;;;25.25;21.00;;;;;17.20;100.00;101368.78;5019722;28;45332;-64
2021/09/25 03:51:52;;;;;;;;;24.50;20.75;;;;;17.13;100.00;101362.84;5019908;28;45367;-64
2021/09/25 03:54:18;;;;;;;;;26.25;23.00;;;;;16.97;100.00;101332.56;5019494;28;46963;-65
2021/09/25 03:56:43;;;;;;;;;21.75;18.75;;;;;17.09;100.00;101355.94;5019688;28;45309;-65
2021/09/25 03:59:09;;;;;;;;;27.75;25.00;;;;;17.10;100.00;101363.78;5019778;28;45273;-65
2021/09/25 04:01:34;;;;;;;;;27.50;22.25;;;;;16.97;100.00;101348.38;5019688;28;45526;-65
2021/09/25 04:03:59;;;;;;;;;26.50;24.25;;;;;16.97;100.00;101345.75;5019784;28;45439;-64
2021/09/25 04:09:46;;;;;;;;;26.00;21.75;;;;;17.01;100.00;101347.41;5019305;28;45472;-65
2021/09/25 04:12:11;;;;;;;;;27.75;24.75;;;;;17.04;100.00;101360.50;5019842;28;45196;-65
2021/09/25 04:14:37;;;;;;;;;24.25;20.75;;;;;16.87;100.00;101328.50;5019600;28;45612;-65
2021/09/25 04:17:03;;;;;;;;;23.50;22.00;;;;;17.04;100.00;101364.00;5019381;28;45267;-67
2021/09/25 04:19:28;;;;;;;;;24.00;21.00;;;;;16.99;100.00;101351.88;5019450;28;45227;-65
2021/09/25 04:21:54;;;;;;;;;27.25;21.00;;;;;16.93;100.00;101341.47;5019607;28;45271;-65
2021/09/25 04:24:19;;;;;;;;;22.00;21.50;;;;;16.72;100.00;101308.72;5019254;28;46105;-65
2021/09/25 04:26:44;;;;;;;;;23.00;21.00;;;;;16.92;100.00;101347.66;5019420;28;45405;-65
2021/09/25 04:29:10;;;;;;;;;25.50;22.00;;;;;16.86;100.00;101339.94;5019343;28;45352;-65
2021/09/25 04:31:36;;;;;;;;;20.00;20.00;;;;;16.95;100.00;101351.06;5019716;28;45364;-65
2021/09/25 04:34:03;;;;;;;;;21.25;20.00;;;;;16.93;100.00;101344.13;5019028;28;46305;-65
2021/09/25 04:39:50;;;;;;;;;28.00;23.25;;;;;16.75;100.00;101314.78;5019262;28;45372;-66
2021/09/25 04:42:15;;;;;;;;;33.00;23.25;;;;;16.91;100.00;101338.91;5019490;28;45314;-66
2021/09/25 04:44:41;;;;;;;;;27.25;21.25;;;;;16.91;100.00;101340.66;5018648;28;47447;-66
2021/09/25 04:47:06;;;;;;;;;24.25;22.50;;;;;16.89;100.00;101331.94;5018808;28;45383;-67
2021/09/25 04:49:32;;;;;;;;;20.75;19.00;;;;;16.89;100.00;101337.22;5017678;28;45377;-66
2021/09/25 04:51:57;;;;;;;;;26.50;23.25;;;;;16.82;100.00;101333.91;5019066;28;45320;-65
2021/09/25 04:54:23;;;;;;;;;25.00;24.25;;;;;16.78;100.00;101333.16;5018770;28;46159;-65
2021/09/25 04:56:48;;;;;;;;;21.50;20.75;;;;;16.83;100.00;101343.56;5018769;28;45381;-65
2021/09/25 04:59:13;;;;;;;;;27.75;23.00;;;;;16.82;100.00;101347.97;5018903;28;45380;-65
2021/09/25 05:01:39;;;;;;;;;26.00;24.00;;;;;16.80;100.00;101343.66;5019209;28;45393;-65
2021/09/25 05:04:07;;;;;;;;;25.75;21.75;;;;;16.75;100.00;101345.56;5018766;28;46298;-64
2021/09/25 05:09:54;;;;;;;;;19.00;16.50;;;;;16.68;100.00;101342.22;5018487;28;45359;-65
2021/09/25 05:12:20;;;;;;;;;20.75;20.00;;;;;16.63;100.00;101344.13;5018907;28;45336;-65
2021/09/25 05:14:45;;;;;;;;;23.00;21.75;;;;;16.67;100.00;101347.56;5018302;28;47198;-64
2021/09/25 05:17:10;;;;;;;;;20.25;18.75;;;;;16.64;100.00;101347.63;5018454;28;45365;-65
2021/09/25 05:19:36;;;;;;;;;25.50;20.00;;;;;16.64;100.00;101340.56;5018748;28;45305;-66
2021/09/25 05:25:23;;;;;;;;;22.25;20.50;;;;;16.58;100.00;101348.66;5018146;28;45845;-65
2021/09/25 05:27:49;;;;;;;;;21.75;18.25;;;;;16.56;100.00;101344.34;5018233;28;45462;-65
2021/09/25 05:30:14;;;;;;;;;22.75;19.50;;;;;16.59;100.00;101352.16;5018625;28;45390;-66
2021/09/25 05:32:40;;;;;;;;;26.50;22.50;;;;;16.59;100.00;101349.53;5018886;28;45387;-66
2021/09/25 05:35:06;;;;;;;;;22.75;18.75;;;;;16.48;100.00;101326.09;5018023;28;46398;-64
2021/09/25 05:37:31;;;;;;;;;21.25;21.00;;;;;16.47;100.00;101332.28;5018093;28;45286;-65
2021/09/25 05:39:57;;;;;;;;;24.50;19.25;;;;;16.46;100.00;101320.00;5018395;28;45341;-64
2021/09/25 05:42:25;;;;;;;;;21.75;20.25;;;;;16.36;100.00;101310.66;5018215;28;45568;-64
2021/09/25 05:44:50;;;;;;;;;24.50;21.50;;;;;16.52;100.00;101343.53;5017892;28;46950;-64
2021/09/25 05:47:16;;;;;;;;;20.00;19.75;;;;;16.50;100.00;101337.47;5017711;28;45400;-64
2021/09/25 05:49:44;;;;;;;;;11.25;9.00;;;;;16.51;100.00;101347.09;5018151;28;45382;-65
2021/09/25 05:55:31;;;;;;;;;26.75;22.00;;;;;16.50;100.00;101342.72;5017725;28;45321;-64
2021/09/25 05:58:01;;;;;;;;;28.25;23.00;;;;;16.51;100.00;101337.41;5017968;28;45374;-64
2021/09/25 06:00:28;;;;;;;;;27.25;22.50;;;;;16.52;100.00;101336.53;5017462;28;45394;-64
2021/09/25 06:02:54;;;;;;;;;23.50;20.25;;;;;16.48;100.00;101344.56;5017886;28;45255;-64
2021/09/25 06:05:20;;;;;;;;;28.50;22.75;;;;;16.47;100.00;101338.41;5017490;28;46689;-65
2021/09/25 06:07:45;;;;;;;;;24.75;20.25;;;;;16.53;100.00;101353.22;5017361;28;45443;-66
2021/09/25 06:10:10;;;;;;;;;25.00;22.75;;;;;16.52;100.00;101343.53;5017696;28;45416;-65
2021/09/25 06:12:36;;;;;;;;;28.75;23.50;;;;;16.57;100.00;101348.72;5017652;28;45441;-65
2021/09/25 06:15:02;;;;;;;;;24.25;19.00;;;;;16.56;100.00;101347.00;5017525;28;46301;-65
2021/09/25 06:17:28;;;;;;;;;27.50;24.50;;;;;16.55;100.00;101340.84;5017306;28;45743;-66
2021/09/25 06:19:53;;;;;;;;;28.00;27.25;;;;;16.62;100.00;101354.72;5017593;28;45484;-66
2021/09/25 06:25:40;;;;;;;;;23.50;21.00;;;;;16.60;100.00;101341.56;5017302;28;45935;-68
2021/09/25 06:28:05;;;;;;;;;26.25;22.75;;;;;16.70;100.00;101361.50;4999587;28;45412;-66
2021/09/25 06:30:31;;;;;;;;;26.00;22.25;;;;;16.71;100.00;101365.00;5017128;28;45410;-65
2021/09/25 06:32:57;;;;;;;;;27.75;23.50;;;;;16.77;100.00;101364.84;5017327;28;45342;-65
2021/09/25 06:35:22;;;;;;;;;23.25;21.00;;;;;16.81;100.00;101358.56;5016961;28;47188;-65
2021/09/25 06:37:47;;;;;;;;;26.00;22.50;;;;;16.84;100.00;101371.66;5017064;28;45435;-66
2021/09/25 06:40:13;;;;;;;;;26.75;21.75;;;;;16.89;100.00;101368.88;5017291;28;45375;-66
2021/09/25 06:42:40;;;;;;;;;27.25;23.50;;;;;16.89;100.00;101355.69;5017371;28;45533;-66
2021/09/25 06:45:06;;;;;;;;;24.25;20.75;;;;;16.97;100.00;101357.16;5017310;28;46394;-66
2021/09/25 06:47:31;;;;;;;;;24.00;21.75;;;;;17.00;100.00;101358.88;5016943;28;45674;-65
2021/09/25 06:49:57;;;;;;;;;25.75;23.75;;;;;17.04;100.00;101344.66;5017497;28;45824;-65
2021/09/25 06:55:44;;;;;;;;;30.25;23.75;;;;;17.13;100.00;101337.31;5016941;28;45776;-64
2021/09/25 06:58:09;;;;;;;;;28.00;25.25;;;;;17.24;100.00;101350.19;5016845;28;45426;-65
2021/09/25 07:00:35;;;;;;;;;26.25;23.25;;;;;17.15;100.00;101321.44;5017129;28;45315;-64
2021/09/25 07:03:01;;;;;;;;;30.00;27.00;;;;;17.25;100.00;101332.56;5017246;28;45332;-66
2021/09/25 07:05:26;;;;;;;;;30.50;27.50;;;;;17.37;100.00;101340.94;5016871;28;45582;-71
2021/09/25 07:07:53;;;;;;;;;26.00;24.00;;;;;17.45;100.00;101338.06;5016644;28;45364;-67
2021/09/25 07:10:18;;;;;;;;;26.75;25.00;;;;;17.49;100.00;101329.13;5016542;28;45320;-69
2021/09/25 07:12:44;;;;;;;;;26.75;24.25;;;;;17.64;100.00;101333.88;5018431;28;45350;-69
2021/09/25 07:15:11;;;;;;;;;28.75;25.00;;;;;17.58;100.00;101301.53;5020544;28;46728;-69
2021/09/25 07:17:37;;;;;;;;;25.50;23.75;;;;;17.87;100.00;101325.19;5020181;28;45267;-69
2021/09/25 07:20:05;;;;;;;;;24.75;23.25;;;;;18.03;100.00;101309.66;5020463;28;45414;-68
2021/09/25 07:25:52;;;;;;;;;30.50;27.00;;;;;18.47;100.00;101341.53;5019716;28;45356;-67
2021/09/25 07:28:17;;;;;;;;;27.25;25.50;;;;;18.59;100.00;101331.38;5019684;28;45404;-67
2021/09/25 07:30:44;;;;;;;;;26.50;23.00;;;;;18.79;100.00;101332.41;5020165;28;45368;-68
2021/09/25 07:33:09;;;;;;;;;26.50;25.50;;;;;18.96;100.00;101330.81;5020340;28;45416;-67
2021/09/25 07:35:35;;;;;;;;;38.25;27.75;;;;;19.11;100.00;101329.34;5019871;28;45337;-67
2021/09/25 07:38:02;;;;;;;;;25.00;23.75;;;;;19.32;100.00;101335.56;5019791;28;45360;-68
2021/09/25 07:40:27;;;;;;;;;31.25;28.25;;;;;19.54;100.00;101322.31;5019811;28;45320;-68
2021/09/25 07:42:53;;;;;;;;;27.00;25.25;;;;;19.74;100.00;101305.59;5019058;28;45558;-69
2021/09/25 07:45:18;;;;;;;;;34.00;28.75;;;;;20.02;100.00;101313.19;5019629;28;45485;-69
2021/09/25 07:47:44;;;;;;;;;24.00;24.00;;;;;20.25;100.00;101315.66;5019374;28;45292;-70
2021/09/25 07:50:10;;;;;;;;;33.50;28.50;;;;;20.47;100.00;101311.13;5019964;28;45273;-65
2021/09/25 07:55:57;;;;;;;;;26.75;26.25;;;;;21.14;100.00;101311.50;5019501;28;45270;-67
2021/09/25 07:58:22;;;;;;;;;31.75;29.75;;;;;21.49;100.00;101315.94;5019485;28;45291;-67
2021/09/25 08:00:48;;;;;;;;;31.75;29.25;;;;;21.80;100.00;101301.09;5019857;28;45199;-67
2021/09/25 08:03:14;;;;;;;;;31.00;29.75;;;;;22.20;100.00;101306.06;5019846;28;45310;-67
2021/09/25 08:05:40;;;;;;;;;34.00;29.50;;;;;22.57;100.00;101309.38;5019668;28;46525;-66
2021/09/25 08:11:26;;;;;;;;;33.75;28.75;;;;;23.38;100.00;101313.66;5017650;28;45441;-66
2021/09/25 08:13:52;;;;;;;;;34.50;29.50;;;;;23.69;100.00;101310.06;5019601;28;45610;-67
2021/09/25 08:16:17;;;;;;;;;33.25;30.00;;;;;23.89;100.00;101292.00;5019394;28;45476;-67
2021/09/25 08:18:43;;;;;;;;;34.50;30.50;;;;;24.09;100.00;101284.47;5019269;28;45313;-67
2021/09/25 08:21:08;;;;;;;;;32.00;28.25;;;;;24.43;100.00;101291.25;5019430;28;45872;-67
2021/09/25 08:23:33;;;;;;;;;28.50;26.00;;;;;24.73;100.00;101300.94;5019299;28;45456;-67
2021/09/25 08:25:59;;;;;;;;;37.00;31.00;;;;;25.14;100.00;101308.97;5019016;28;45964;-67
2021/09/25 08:28:24;;;;;;;;;32.25;29.25;;;;;25.51;100.00;101287.75;5019416;28;45319;-67
2021/09/25 08:30:50;;;;;;;;;39.25;33.00;;;;;25.95;100.00;101285.59;5018759;28;45452;-66
2021/09/25 08:33:15;;;;;;;;;35.25;31.00;;;;;26.38;100.00;101277.22;5019269;28;45307;-67
2021/09/25 08:35:41;;;;;;;;;35.50;30.75;;;;;26.91;100.00;101287.66;5019208;28;46358;-68
2021/09/25 08:41:28;;;;;;;;;31.00;28.75;;;;;28.00;100.00;101294.53;5018852;28;45372;-67
2021/09/25 08:43:53;;;;;;;;;35.50;30.75;;;;;28.44;100.00;101291.03;5019067;28;45300;-68
2021/09/25 08:46:18;;;;;;;;;27.25;25.75;;;;;28.76;100.00;101299.19;5018599;28;47189;-68
2021/09/25 08:48:44;;;;;;;;;33.25;30.50;;;;;29.04;100.00;101286.19;5000910;28;45352;-68
2021/09/25 08:51:11;;;;;;;;;28.50;26.50;;;;;29.27;100.00;101282.41;5018719;28;45574;-67
2021/09/25 08:53:36;;;;;;;;;25.25;24.50;;;;;29.62;100.00;101279.44;5018828;28;45271;-67
2021/09/25 08:56:03;;;;;;;;;29.50;24.50;;;;;30.02;100.00;101279.53;5018715;28;46306;-67
2021/09/25 08:58:28;;;;;;;;;28.25;23.75;;;;;30.28;100.00;101281.78;5018606;28;45408;-68
2021/09/25 09:00:54;;;;;;;;;30.50;28.00;;;;;30.36;100.00;101280.13;5019028;28;45357;-70
2021/09/25 09:03:35;;;;;;;;;25.00;24.00;;;;;30.07;100.00;101269.22;5019159;28;45418;-68
2021/09/25 09:12:37;;;;;;;;;28.00;25.00;;;;;28.22;100.00;101274.91;5017989;28;45590;-68
2021/09/25 09:15:03;;;;;;;;;29.75;29.00;;;;;27.72;100.00;101285.97;5018533;28;45226;-68
2021/09/25 09:17:32;;;;;;;;;28.00;25.75;;;;;27.24;100.00;101290.53;5018386;28;45329;-67
2021/09/25 09:20:08;;;;;;;;;28.50;28.50;;;;;26.85;100.00;101294.34;5018524;28;45708;-67
2021/09/25 09:25:55;;;;;;;;;27.75;25.00;;;;;26.64;100.00;101285.19;5018341;28;45481;-67
2021/09/25 09:28:25;;;;;;;;;30.50;25.00;;;;;26.94;100.00;101292.81;5000231;28;46279;-68
2021/09/25 09:30:53;;;;;;;;;27.50;26.00;;;;;26.99;100.00;101290.66;5018073;28;45299;-67
2021/09/25 09:33:29;;;;;;;;;26.50;23.75;;;;;26.95;100.00;101298.06;5018443;28;45243;-69
2021/09/25 09:36:09;;;;;;;;;23.75;21.00;;;;;26.86;100.00;101306.75;5017583;28;45489;-67
2021/09/25 09:41:58;;;;;;;;;23.50;22.75;;;;;27.43;100.00;101284.66;5017935;28;45658;-68
2021/09/25 09:44:25;;;;;;;;;25.75;23.50;;;;;27.52;100.00;101293.81;5018038;28;45479;-67
2021/09/25 09:46:53;;;;;;;;;29.75;26.75;;;;;27.75;100.00;101290.22;5018187;28;45346;-67
2021/09/25 09:49:24;;;;;;;;;28.50;25.00;;;;;28.44;100.00;101282.13;5018072;28;46300;-68
2021/09/25 09:51:54;;;;;;;;;27.75;24.00;;;;;29.44;100.00;101273.78;5017495;28;45580;-67
2021/09/25 09:54:29;;;;;;;;;25.75;24.50;;;;;30.55;100.00;101273.06;5018087;28;45329;-67
2021/09/25 09:57:01;;;;;;;;;25.50;23.25;;;;;30.94;98.60;101257.84;5018123;28;45347;-68
2021/09/25 09:59:28;;;;;;;;;24.75;23.50;;;;;31.29;96.38;101252.78;5017886;28;45307;-67
2021/09/25 10:01:53;;;;;;;;;28.75;24.75;;;;;32.38;93.10;101254.06;5017620;28;45339;-67
2021/09/25 10:04:20;;;;;;;;;29.00;26.00;;;;;33.55;89.73;101257.59;5017992;28;45390;-68
2021/09/25 10:06:46;;;;;;;;;26.25;24.25;;;;;34.59;85.33;101258.31;5017904;28;45460;-68
2021/09/25 10:09:14;;;;;;;;;27.75;26.00;;;;;35.38;81.76;101266.94;5017675;28;45570;-67
2021/09/25 10:11:42;;;;;;;;;25.75;23.25;;;;;36.05;79.97;101256.66;5017242;28;45796;-68
2021/09/25 10:14:09;;;;;;;;;24.00;23.25;;;;;36.54;77.85;101245.56;5017792;28;45365;-67
2021/09/25 10:16:36;;;;;;;;;26.00;24.75;;;;;36.59;74.69;101238.53;5017717;28;45460;-67
2021/09/25 10:19:04;;;;;;;;;22.75;21.00;;;;;37.27;73.92;101245.91;5017344;28;47544;-68
2021/09/25 10:21:34;;;;;;;;;25.75;23.75;;;;;37.84;71.90;101260.91;4999495;28;45652;-67
2021/09/25 10:27:47;;;;;;;;;24.00;22.25;;;;;39.97;66.80;101260.22;5017524;28;45369;-67
2021/09/25 10:30:14;;;;;;;;;25.50;24.50;;;;;40.50;65.65;101253.09;5013486;28;46314;-68
2021/09/25 10:32:49;;;;;;;;;24.75;23.00;;;;;40.87;63.73;101249.00;5017354;28;45556;-67
2021/09/25 10:35:23;;;;;;;;;25.00;24.75;;;;;40.89;62.34;101246.06;5017353;28;45298;-66
2021/09/25 10:37:55;;;;;;;;;23.25;22.00;;;;;40.72;61.91;101253.78;5017331;28;45552;-67
2021/09/25 10:40:28;;;;;;;;;25.50;25.50;;;;;40.65;60.28;101262.00;5016988;28;45512;-67
2021/09/25 10:43:16;;;;;;;;;30.25;26.75;;;;;40.78;59.02;101254.88;5017088;28;45543;-68
2021/09/25 10:45:43;;;;;;;;;22.75;22.75;;;;;41.05;59.30;101256.63;5017486;28;45317;-68
2021/09/25 10:48:22;;;;;;;;;26.00;24.00;;;;;41.46;58.43;101248.22;5016234;28;45468;-68
2021/09/25 10:50:54;;;;;;;;;25.00;24.00;;;;;41.74;56.66;101244.41;5016776;28;45520;-67
2021/09/25 10:53:27;;;;;;;;;24.75;23.00;;;;;41.80;56.12;101241.63;5016867;28;45301;-67
2021/09/25 10:55:57;;;;;;;;;24.50;21.50;;;;;42.00;56.55;101244.31;5017001;28;45356;-67
2021/09/25 10:58:25;;;;;;;;;23.25;23.25;;;;;42.42;56.31;101239.31;5017601;28;45296;-67
2021/09/25 11:00:51;;;;;;;;;31.00;28.50;;;;;42.80;55.07;101229.16;4998991;28;46994;-68
2021/09/25 11:03:47;;;;;;;;;25.25;25.25;;;;;43.00;53.46;101229.03;5017028;28;45441;-67
2021/09/25 11:06:13;;;;;;;;;21.75;21.00;;;;;43.23;52.79;101225.69;5017191;28;45404;-67
2021/09/25 11:08:52;;;;;;;;;24.25;23.75;;;;;43.49;51.78;101221.03;5017374;28;45401;-67
2021/09/25 11:11:30;;;;;;;;;34.50;30.50;;;;;43.65;50.79;101207.47;5016696;28;45412;-67
2021/09/25 11:14:01;;;;;;;;;23.25;21.75;;;;;43.85;49.40;101217.47;5016864;28;45353;-67
2021/09/25 11:16:49;;;;;;;;;23.25;23.25;;;;;44.11;49.37;101217.16;5016911;28;45378;-67
2021/09/25 11:19:26;;;;;;;;;24.75;23.00;;;;;44.50;49.19;101199.28;5017144;28;45432;-67
2021/09/25 11:21:57;;;;;;;;;23.00;21.00;;;;;44.72;47.92;101202.31;5016424;28;46231;-67
2021/09/25 11:24:23;;;;;;;;;22.00;19.25;;;;;44.67;45.55;101196.69;5016510;28;45277;-68
2021/09/25 11:26:49;;;;;;;;;26.50;22.00;;;;;44.59;45.09;101188.78;5016678;28;45296;-67
2021/09/25 11:29:16;;;;;;;;;20.75;19.50;;;;;44.44;44.53;101180.91;5016672;28;45333;-66
2021/09/25 11:31:46;;;;;;;;;21.00;19.75;;;;;44.33;45.61;101170.66;5016769;28;46771;-68
2021/09/25 11:34:28;;;;;;;;;18.00;18.00;;;;;44.35;46.40;101174.03;5016850;28;45538;-70
2021/09/25 11:36:56;;;;;;;;;19.50;19.50;;;;;44.34;46.07;101180.59;5016684;28;45424;-67
2021/09/25 11:39:22;;;;;;;;;19.75;18.50;;;;;44.08;45.01;101170.81;5016682;28;45439;-66
2021/09/25 11:42:14;;;;;;;;;18.75;18.75;;;;;43.58;44.45;101189.38;5016426;28;47258;-67
2021/09/25 11:44:56;;;;;;;;;18.75;18.00;;;;;43.21;44.53;101172.81;5016478;28;45395;-67
2021/09/25 11:47:27;;;;;;;;;21.75;20.25;;;;;42.98;45.61;101172.59;5016312;28;45373;-66
2021/09/25 11:49:55;;;;;;;;;18.50;18.00;;;;;43.01;46.64;101172.19;5016331;28;45637;-66
2021/09/25 11:52:21;;;;;;;;;18.00;17.50;;;;;43.19;46.65;101176.84;5015572;28;46561;-66
2021/09/25 11:54:48;;;;;;;;;18.75;17.00;;;;;43.45;45.75;101159.25;5015827;28;45632;-65
2021/09/25 11:57:22;;;;;;;;;15.50;14.75;;;;;43.65;45.16;101162.63;5016183;28;45385;-67
2021/09/25 11:59:48;;;;;;;;;18.00;18.00;;;;;43.79;44.86;101169.69;5018912;28;45325;-66
2021/09/25 12:02:40;;;;;;;;;17.50;16.75;;;;;43.94;43.06;101150.03;5019411;28;45424;-66
2021/09/25 12:05:07;;;;;;;;;19.00;18.25;;;;;44.05;43.50;101153.91;5019188;28;45613;-66
2021/09/25 12:10:58;;;;;;;;;15.75;15.75;;;;;44.46;41.62;101133.84;5019076;28;45445;-67
2021/09/25 12:13:26;;;;;;;;;16.00;15.00;;;;;44.54;40.56;101139.03;5018667;28;47576;-66
2021/09/25 12:15:54;;;;;;;;;15.50;15.50;;;;;44.62;40.68;101129.59;5019081;28;45519;-66
2021/09/25 12:18:19;;;;;;;;;17.50;17.50;;;;;45.03;40.00;101121.22;5019027;28;45218;-65
2021/09/25 12:20:57;;;;;;;;;17.50;17.00;;;;;45.66;39.13;101112.19;5019530;28;45215;-67
2021/09/25 12:26:45;;;;;;;;;18.00;17.25;;;;;46.75;35.96;101106.50;5018778;28;45335;-64
2021/09/25 12:29:16;;;;;;;;;17.00;15.00;;;;;47.02;35.07;101106.63;5018700;28;45329;-66
2021/09/25 12:31:41;;;;;;;;;13.25;12.75;;;;;47.05;34.57;101102.50;5019289;28;45310;-69
2021/09/25 12:34:16;;;;;;;;;19.00;17.25;;;;;46.96;33.94;101102.94;5018577;28;47055;-68
2021/09/25 12:36:44;;;;;;;;;12.00;11.75;;;;;46.89;34.28;101094.00;5018638;28;45401;-71